sensor_id;sensor_type;location;lat;lon;timestamp;P1;durP1;ratioP1;P2;durP2;ratioP2
55469;SDS011;41334;47.872;16.384;2023-07-31T00:04:34;2.08;;;0.85;;
55469;SDS011;41334;47.872;16.384;2023-07-31T00:09:36;1.13;;;0.65;;
55469;SDS011;41334;47.872;16.384;2023-07-31T00:14:38;2.83;;;1.00;;
55469;SDS011;41334;47.872;16.384;2023-07-31T00:19:40;1.92;;;0.70;;
55469;SDS011;41334;47.872;16.384;2023-07-31T00:24:42;1.92;;;0.80;;
55469;SDS011;41334;47.872;16.384;2023-07-31T00:29:43;1.70;;;0.70;;
55469;SDS011;41334;47.872;16.384;2023-07-31T00:34:45;1.52;;;0.70;;
55469;SDS011;41334;47.872;16.384;2023-07-31T00:39:47;1.95;;;0.68;;
55469;SDS011;41334;47.872;16.384;2023-07-31T00:44:50;1.95;;;0.60;;
55469;SDS011;41334;47.872;16.384;2023-07-31T00:49:51;1.58;;;0.73;;
55469;SDS011;41334;47.872;16.384;2023-07-31T00:54:54;1.30;;;0.70;;
55469;SDS011;41334;47.872;16.384;2023-07-31T00:59:56;2.13;;;0.52;;
55469;SDS011;41334;47.872;16.384;2023-07-31T01:04:58;1.75;;;0.77;;
55469;SDS011;41334;47.872;16.384;2023-07-31T01:15:23;2.17;;;0.50;;
55469;SDS011;41334;47.872;16.384;2023-07-31T01:20:25;1.90;;;0.70;;
55469;SDS011;41334;47.872;16.384;2023-07-31T01:31:13;2.25;;;0.47;;
55469;SDS011;41334;47.872;16.384;2023-07-31T01:36:20;2.55;;;0.70;;
55469;SDS011;41334;47.872;16.384;2023-07-31T01:41:22;1.80;;;0.73;;
55469;SDS011;41334;47.872;16.384;2023-07-31T01:46:23;1.52;;;0.88;;
55469;SDS011;41334;47.872;16.384;2023-07-31T01:51:25;6.53;;;1.13;;
55469;SDS011;41334;47.872;16.384;2023-07-31T01:56:27;2.03;;;1.00;;
55469;SDS011;41334;47.872;16.384;2023-07-31T02:01:29;2.75;;;1.20;;
55469;SDS011;41334;47.872;16.384;2023-07-31T02:06:32;2.10;;;1.02;;
55469;SDS011;41334;47.872;16.384;2023-07-31T02:11:35;1.58;;;0.70;;
55469;SDS011;41334;47.872;16.384;2023-07-31T02:16:37;1.30;;;0.77;;
55469;SDS011;41334;47.872;16.384;2023-07-31T02:21:40;1.50;;;0.75;;
55469;SDS011;41334;47.872;16.384;2023-07-31T02:26:42;2.22;;;0.95;;
55469;SDS011;41334;47.872;16.384;2023-07-31T02:31:44;1.50;;;0.63;;
55469;SDS011;41334;47.872;16.384;2023-07-31T02:36:46;2.20;;;0.70;;
55469;SDS011;41334;47.872;16.384;2023-07-31T02:41:47;2.28;;;0.98;;
55469;SDS011;41334;47.872;16.384;2023-07-31T02:46:51;2.33;;;1.02;;
55469;SDS011;41334;47.872;16.384;2023-07-31T02:51:55;2.30;;;1.05;;
55469;SDS011;41334;47.872;16.384;2023-07-31T02:56:57;1.60;;;0.63;;
55469;SDS011;41334;47.872;16.384;2023-07-31T03:01:59;1.60;;;0.80;;
55469;SDS011;41334;47.872;16.384;2023-07-31T03:07:01;1.13;;;0.52;;
55469;SDS011;41334;47.872;16.384;2023-07-31T03:12:03;1.98;;;0.77;;
55469;SDS011;41334;47.872;16.384;2023-07-31T03:17:05;2.75;;;0.60;;
55469;SDS011;41334;47.872;16.384;2023-07-31T03:22:07;1.88;;;1.23;;
55469;SDS011;41334;47.872;16.384;2023-07-31T03:27:09;3.85;;;0.80;;
55469;SDS011;41334;47.872;16.384;2023-07-31T03:32:11;2.58;;;0.93;;
55469;SDS011;41334;47.872;16.384;2023-07-31T03:37:13;1.38;;;0.73;;
55469;SDS011;41334;47.872;16.384;2023-07-31T03:42:15;3.20;;;0.90;;
55469;SDS011;41334;47.872;16.384;2023-07-31T03:47:17;2.05;;;0.80;;
55469;SDS011;41334;47.872;16.384;2023-07-31T03:52:19;1.92;;;0.80;;
55469;SDS011;41334;47.872;16.384;2023-07-31T03:57:21;6.18;;;1.05;;
55469;SDS011;41334;47.872;16.384;2023-07-31T04:02:23;1.80;;;0.80;;
55469;SDS011;41334;47.872;16.384;2023-07-31T04:07:25;1.88;;;0.90;;
55469;SDS011;41334;47.872;16.384;2023-07-31T04:12:27;2.90;;;1.17;;
55469;SDS011;41334;47.872;16.384;2023-07-31T04:17:29;2.33;;;1.00;;
55469;SDS011;41334;47.872;16.384;2023-07-31T04:22:31;0.75;;;0.10;;
55469;SDS011;41334;47.872;16.384;2023-07-31T04:27:33;3.58;;;1.08;;
55469;SDS011;41334;47.872;16.384;2023-07-31T04:32:35;3.30;;;1.08;;
55469;SDS011;41334;47.872;16.384;2023-07-31T04:37:37;2.53;;;0.82;;
55469;SDS011;41334;47.872;16.384;2023-07-31T04:42:40;4.45;;;0.95;;
55469;SDS011;41334;47.872;16.384;2023-07-31T04:47:41;2.75;;;0.90;;
55469;SDS011;41334;47.872;16.384;2023-07-31T04:52:44;2.40;;;1.17;;
55469;SDS011;41334;47.872;16.384;2023-07-31T04:57:46;3.40;;;0.93;;
55469;SDS011;41334;47.872;16.384;2023-07-31T05:02:48;4.68;;;1.00;;
55469;SDS011;41334;47.872;16.384;2023-07-31T05:07:50;1.05;;;0.68;;
55469;SDS011;41334;47.872;16.384;2023-07-31T05:12:52;1.77;;;0.70;;
55469;SDS011;41334;47.872;16.384;2023-07-31T05:17:54;0.45;;;0.20;;
55469;SDS011;41334;47.872;16.384;2023-07-31T05:22:56;2.03;;;0.85;;
55469;SDS011;41334;47.872;16.384;2023-07-31T05:27:58;2.65;;;1.10;;
55469;SDS011;41334;47.872;16.384;2023-07-31T05:33:00;2.90;;;0.90;;
55469;SDS011;41334;47.872;16.384;2023-07-31T05:38:02;0.70;;;0.40;;
55469;SDS011;41334;47.872;16.384;2023-07-31T05:43:04;0.80;;;0.50;;
55469;SDS011;41334;47.872;16.384;2023-07-31T05:48:08;1.15;;;0.55;;
55469;SDS011;41334;47.872;16.384;2023-07-31T05:53:10;1.52;;;0.80;;
55469;SDS011;41334;47.872;16.384;2023-07-31T05:58:12;2.42;;;0.60;;
55469;SDS011;41334;47.872;16.384;2023-07-31T06:03:14;0.15;;;0.15;;
55469;SDS011;41334;47.872;16.384;2023-07-31T06:08:16;1.98;;;0.95;;
55469;SDS011;41334;47.872;16.384;2023-07-31T06:13:18;0.73;;;0.50;;
55469;SDS011;41334;47.872;16.384;2023-07-31T06:18:20;3.97;;;0.70;;
55469;SDS011;41334;47.872;16.384;2023-07-31T06:23:21;1.50;;;0.70;;
55469;SDS011;41334;47.872;16.384;2023-07-31T06:28:30;0.73;;;0.30;;
55469;SDS011;41334;47.872;16.384;2023-07-31T06:33:35;3.00;;;0.82;;
55469;SDS011;41334;47.872;16.384;2023-07-31T06:38:37;1.92;;;1.02;;
55469;SDS011;41334;47.872;16.384;2023-07-31T06:43:39;3.38;;;0.82;;
55469;SDS011;41334;47.872;16.384;2023-07-31T06:48:41;4.50;;;0.88;;
55469;SDS011;41334;47.872;16.384;2023-07-31T06:53:43;2.63;;;1.00;;
55469;SDS011;41334;47.872;16.384;2023-07-31T06:58:46;1.98;;;0.38;;
55469;SDS011;41334;47.872;16.384;2023-07-31T07:03:48;1.85;;;0.38;;
55469;SDS011;41334;47.872;16.384;2023-07-31T07:08:52;1.92;;;0.70;;
55469;SDS011;41334;47.872;16.384;2023-07-31T07:13:54;2.22;;;0.80;;
55469;SDS011;41334;47.872;16.384;2023-07-31T07:18:56;4.05;;;1.00;;
55469;SDS011;41334;47.872;16.384;2023-07-31T07:24:05;1.00;;;0.50;;
55469;SDS011;41334;47.872;16.384;2023-07-31T07:29:07;2.95;;;0.50;;
55469;SDS011;41334;47.872;16.384;2023-07-31T07:34:09;0.35;;;0.15;;
55469;SDS011;41334;47.872;16.384;2023-07-31T07:39:11;2.10;;;0.63;;
55469;SDS011;41334;47.872;16.384;2023-07-31T07:44:13;3.10;;;0.70;;
55469;SDS011;41334;47.872;16.384;2023-07-31T07:49:16;1.35;;;0.50;;
55469;SDS011;41334;47.872;16.384;2023-07-31T07:54:17;1.98;;;0.70;;
55469;SDS011;41334;47.872;16.384;2023-07-31T07:59:21;3.17;;;0.70;;
55469;SDS011;41334;47.872;16.384;2023-07-31T08:04:23;1.20;;;0.60;;
55469;SDS011;41334;47.872;16.384;2023-07-31T08:09:25;2.60;;;0.70;;
55469;SDS011;41334;47.872;16.384;2023-07-31T08:14:27;0.73;;;0.40;;
55469;SDS011;41334;47.872;16.384;2023-07-31T08:19:33;2.75;;;0.82;;
55469;SDS011;41334;47.872;16.384;2023-07-31T08:24:35;1.00;;;0.40;;
55469;SDS011;41334;47.872;16.384;2023-07-31T08:29:37;1.35;;;0.57;;
55469;SDS011;41334;47.872;16.384;2023-07-31T08:34:39;2.30;;;0.52;;
55469;SDS011;41334;47.872;16.384;2023-07-31T08:39:42;1.90;;;0.40;;
55469;SDS011;41334;47.872;16.384;2023-07-31T08:44:43;3.72;;;0.57;;
55469;SDS011;41334;47.872;16.384;2023-07-31T08:49:46;0.85;;;0.40;;
55469;SDS011;41334;47.872;16.384;2023-07-31T08:54:49;1.50;;;0.40;;
55469;SDS011;41334;47.872;16.384;2023-07-31T08:59:51;0.95;;;0.35;;
55469;SDS011;41334;47.872;16.384;2023-07-31T09:04:54;3.63;;;0.85;;
55469;SDS011;41334;47.872;16.384;2023-07-31T09:09:57;1.13;;;0.40;;
55469;SDS011;41334;47.872;16.384;2023-07-31T09:14:59;3.03;;;0.70;;
55469;SDS011;41334;47.872;16.384;2023-07-31T09:25:23;1.00;;;0.55;;
55469;SDS011;41334;47.872;16.384;2023-07-31T09:30:27;1.70;;;0.50;;
55469;SDS011;41334;47.872;16.384;2023-07-31T09:35:29;3.90;;;0.65;;
55469;SDS011;41334;47.872;16.384;2023-07-31T09:40:33;1.95;;;0.57;;
55469;SDS011;41334;47.872;16.384;2023-07-31T09:45:40;0.52;;;0.30;;
55469;SDS011;41334;47.872;16.384;2023-07-31T09:50:46;1.55;;;0.70;;
55469;SDS011;41334;47.872;16.384;2023-07-31T09:55:50;1.85;;;0.82;;
55469;SDS011;41334;47.872;16.384;2023-07-31T10:00:53;2.40;;;0.75;;
55469;SDS011;41334;47.872;16.384;2023-07-31T10:05:55;1.48;;;0.77;;
55469;SDS011;41334;47.872;16.384;2023-07-31T10:11:00;1.77;;;0.80;;
55469;SDS011;41334;47.872;16.384;2023-07-31T10:16:04;1.75;;;0.80;;
55469;SDS011;41334;47.872;16.384;2023-07-31T10:21:06;1.45;;;0.55;;
55469;SDS011;41334;47.872;16.384;2023-07-31T10:26:09;2.15;;;0.88;;
55469;SDS011;41334;47.872;16.384;2023-07-31T10:31:12;1.73;;;0.57;;
55469;SDS011;41334;47.872;16.384;2023-07-31T10:36:18;1.25;;;0.40;;
55469;SDS011;41334;47.872;16.384;2023-07-31T10:41:31;0.43;;;0.30;;
55469;SDS011;41334;47.872;16.384;2023-07-31T10:46:35;3.10;;;0.60;;
55469;SDS011;41334;47.872;16.384;2023-07-31T10:51:38;1.42;;;0.82;;
55469;SDS011;41334;47.872;16.384;2023-07-31T10:56:45;4.40;;;0.90;;
55469;SDS011;41334;47.872;16.384;2023-07-31T11:01:55;4.75;;;0.77;;
55469;SDS011;41334;47.872;16.384;2023-07-31T11:07:06;1.75;;;0.45;;
55469;SDS011;41334;47.872;16.384;2023-07-31T11:12:12;1.75;;;0.63;;
55469;SDS011;41334;47.872;16.384;2023-07-31T11:17:14;2.42;;;0.80;;
55469;SDS011;41334;47.872;16.384;2023-07-31T11:22:15;2.42;;;0.88;;
55469;SDS011;41334;47.872;16.384;2023-07-31T11:27:19;1.88;;;0.73;;
55469;SDS011;41334;47.872;16.384;2023-07-31T11:32:21;1.70;;;0.57;;
55469;SDS011;41334;47.872;16.384;2023-07-31T11:37:25;2.00;;;0.90;;
55469;SDS011;41334;47.872;16.384;2023-07-31T11:42:40;0.45;;;0.38;;
55469;SDS011;41334;47.872;16.384;2023-07-31T11:47:43;2.30;;;0.73;;
55469;SDS011;41334;47.872;16.384;2023-07-31T11:52:45;8.60;;;1.30;;
55469;SDS011;41334;47.872;16.384;2023-07-31T11:57:51;2.45;;;1.10;;
55469;SDS011;41334;47.872;16.384;2023-07-31T12:02:54;1.98;;;0.75;;
55469;SDS011;41334;47.872;16.384;2023-07-31T12:07:57;4.20;;;1.00;;
55469;SDS011;41334;47.872;16.384;2023-07-31T12:13:01;2.10;;;0.65;;
55469;SDS011;41334;47.872;16.384;2023-07-31T12:18:16;1.95;;;0.73;;
55469;SDS011;41334;47.872;16.384;2023-07-31T12:23:21;2.92;;;0.90;;
55469;SDS011;41334;47.872;16.384;2023-07-31T12:28:35;2.42;;;0.90;;
55469;SDS011;41334;47.872;16.384;2023-07-31T12:33:52;3.13;;;0.90;;
55469;SDS011;41334;47.872;16.384;2023-07-31T12:38:54;1.73;;;0.82;;
55469;SDS011;41334;47.872;16.384;2023-07-31T12:43:57;3.75;;;1.20;;
55469;SDS011;41334;47.872;16.384;2023-07-31T12:48:59;2.83;;;1.25;;
55469;SDS011;41334;47.872;16.384;2023-07-31T12:54:01;3.10;;;0.80;;
55469;SDS011;41334;47.872;16.384;2023-07-31T12:59:03;3.53;;;0.95;;
55469;SDS011;41334;47.872;16.384;2023-07-31T13:04:05;1.55;;;0.77;;
55469;SDS011;41334;47.872;16.384;2023-07-31T13:09:07;1.83;;;0.88;;
55469;SDS011;41334;47.872;16.384;2023-07-31T13:14:09;3.75;;;0.88;;
55469;SDS011;41334;47.872;16.384;2023-07-31T13:19:11;3.67;;;1.00;;
55469;SDS011;41334;47.872;16.384;2023-07-31T13:24:12;2.15;;;0.82;;
55469;SDS011;41334;47.872;16.384;2023-07-31T13:29:15;7.43;;;2.53;;
55469;SDS011;41334;47.872;16.384;2023-07-31T13:34:18;2.53;;;1.00;;
55469;SDS011;41334;47.872;16.384;2023-07-31T13:39:20;1.88;;;0.80;;
55469;SDS011;41334;47.872;16.384;2023-07-31T13:44:21;2.78;;;1.20;;
55469;SDS011;41334;47.872;16.384;2023-07-31T13:49:23;2.75;;;1.15;;
55469;SDS011;41334;47.872;16.384;2023-07-31T13:54:25;4.32;;;1.20;;
55469;SDS011;41334;47.872;16.384;2023-07-31T13:59:31;2.08;;;0.85;;
55469;SDS011;41334;47.872;16.384;2023-07-31T14:04:33;3.50;;;0.93;;
55469;SDS011;41334;47.872;16.384;2023-07-31T14:09:35;5.75;;;1.77;;
55469;SDS011;41334;47.872;16.384;2023-07-31T14:14:37;11.95;;;1.42;;
55469;SDS011;41334;47.872;16.384;2023-07-31T14:19:39;1.58;;;0.90;;
55469;SDS011;41334;47.872;16.384;2023-07-31T14:24:41;2.08;;;1.02;;
55469;SDS011;41334;47.872;16.384;2023-07-31T14:29:43;4.32;;;1.17;;
55469;SDS011;41334;47.872;16.384;2023-07-31T14:34:45;2.58;;;0.82;;
55469;SDS011;41334;47.872;16.384;2023-07-31T14:39:47;4.68;;;0.80;;
55469;SDS011;41334;47.872;16.384;2023-07-31T14:44:48;2.65;;;1.08;;
55469;SDS011;41334;47.872;16.384;2023-07-31T14:49:50;2.22;;;0.77;;
55469;SDS011;41334;47.872;16.384;2023-07-31T14:54:52;2.17;;;0.95;;
55469;SDS011;41334;47.872;16.384;2023-07-31T14:59:54;1.45;;;0.80;;
55469;SDS011;41334;47.872;16.384;2023-07-31T15:04:58;2.95;;;0.70;;
55469;SDS011;41334;47.872;16.384;2023-07-31T15:10:03;3.65;;;0.88;;
55469;SDS011;41334;47.872;16.384;2023-07-31T15:15:06;1.20;;;0.60;;
55469;SDS011;41334;47.872;16.384;2023-07-31T15:20:09;2.95;;;1.20;;
55469;SDS011;41334;47.872;16.384;2023-07-31T15:25:12;4.97;;;1.10;;
55469;SDS011;41334;47.872;16.384;2023-07-31T15:30:15;5.85;;;1.30;;
55469;SDS011;41334;47.872;16.384;2023-07-31T15:35:17;1.45;;;0.73;;
55469;SDS011;41334;47.872;16.384;2023-07-31T16:00:58;2.90;;;1.27;;
55469;SDS011;41334;47.872;16.384;2023-07-31T16:06:00;2.42;;;1.27;;
55469;SDS011;41334;47.872;16.384;2023-07-31T16:11:02;2.08;;;1.10;;
55469;SDS011;41334;47.872;16.384;2023-07-31T16:16:12;3.08;;;1.13;;
55469;SDS011;41334;47.872;16.384;2023-07-31T16:21:24;1.88;;;0.90;;
55469;SDS011;41334;47.872;16.384;2023-07-31T16:26:30;1.85;;;1.05;;
55469;SDS011;41334;47.872;16.384;2023-07-31T16:31:33;2.10;;;1.20;;
55469;SDS011;41334;47.872;16.384;2023-07-31T16:36:56;3.55;;;1.30;;
55469;SDS011;41334;47.872;16.384;2023-07-31T16:41:58;2.15;;;1.30;;
55469;SDS011;41334;47.872;16.384;2023-07-31T16:47:00;7.55;;;1.40;;
55469;SDS011;41334;47.872;16.384;2023-07-31T16:52:04;2.30;;;1.05;;
55469;SDS011;41334;47.872;16.384;2023-07-31T16:57:10;3.35;;;1.25;;
55469;SDS011;41334;47.872;16.384;2023-07-31T17:21:35;3.05;;;1.27;;
55469;SDS011;41334;47.872;16.384;2023-07-31T17:26:40;3.60;;;1.20;;
55469;SDS011;41334;47.872;16.384;2023-07-31T17:31:45;2.53;;;0.95;;
55469;SDS011;41334;47.872;16.384;2023-07-31T17:36:48;2.17;;;1.30;;
55469;SDS011;41334;47.872;16.384;2023-07-31T17:41:53;5.65;;;1.20;;
55469;SDS011;41334;47.872;16.384;2023-07-31T17:46:58;3.35;;;1.23;;
55469;SDS011;41334;47.872;16.384;2023-07-31T17:52:13;1.88;;;1.17;;
55469;SDS011;41334;47.872;16.384;2023-07-31T18:04:15;6.78;;;1.42;;
55469;SDS011;41334;47.872;16.384;2023-07-31T18:33:25;2.30;;;1.20;;
55469;SDS011;41334;47.872;16.384;2023-07-31T18:38:27;2.25;;;1.10;;
55469;SDS011;41334;47.872;16.384;2023-07-31T18:43:33;4.85;;;1.38;;
55469;SDS011;41334;47.872;16.384;2023-07-31T18:48:35;2.33;;;1.23;;
55469;SDS011;41334;47.872;16.384;2023-07-31T18:53:37;6.10;;;1.10;;
55469;SDS011;41334;47.872;16.384;2023-07-31T18:58:40;5.00;;;1.13;;
55469;SDS011;41334;47.872;16.384;2023-07-31T19:03:44;6.55;;;1.20;;
55469;SDS011;41334;47.872;16.384;2023-07-31T19:08:46;2.60;;;1.25;;
55469;SDS011;41334;47.872;16.384;2023-07-31T19:13:48;3.90;;;1.10;;
55469;SDS011;41334;47.872;16.384;2023-07-31T19:18:50;2.55;;;1.30;;
55469;SDS011;41334;47.872;16.384;2023-07-31T19:23:52;4.07;;;1.13;;
55469;SDS011;41334;47.872;16.384;2023-07-31T19:28:54;2.33;;;1.20;;
55469;SDS011;41334;47.872;16.384;2023-07-31T19:33:56;2.75;;;1.30;;
55469;SDS011;41334;47.872;16.384;2023-07-31T19:38:58;4.15;;;1.20;;
55469;SDS011;41334;47.872;16.384;2023-07-31T19:44:03;17.25;;;1.48;;
55469;SDS011;41334;47.872;16.384;2023-07-31T19:49:05;5.82;;;1.20;;
55469;SDS011;41334;47.872;16.384;2023-07-31T19:54:07;2.72;;;1.25;;
55469;SDS011;41334;47.872;16.384;2023-07-31T19:59:11;3.95;;;1.40;;
55469;SDS011;41334;47.872;16.384;2023-07-31T20:04:13;3.55;;;1.23;;
55469;SDS011;41334;47.872;16.384;2023-07-31T20:09:15;2.13;;;1.20;;
55469;SDS011;41334;47.872;16.384;2023-07-31T20:14:20;3.53;;;1.50;;
55469;SDS011;41334;47.872;16.384;2023-07-31T20:19:22;2.53;;;1.27;;
55469;SDS011;41334;47.872;16.384;2023-07-31T20:24:24;2.00;;;1.27;;
55469;SDS011;41334;47.872;16.384;2023-07-31T20:29:26;3.28;;;1.23;;
55469;SDS011;41334;47.872;16.384;2023-07-31T20:34:27;3.65;;;1.38;;
55469;SDS011;41334;47.872;16.384;2023-07-31T20:39:29;4.05;;;1.83;;
55469;SDS011;41334;47.872;16.384;2023-07-31T20:44:31;4.80;;;1.50;;
55469;SDS011;41334;47.872;16.384;2023-07-31T20:49:33;4.93;;;1.52;;
55469;SDS011;41334;47.872;16.384;2023-07-31T20:54:35;1.73;;;1.17;;
55469;SDS011;41334;47.872;16.384;2023-07-31T20:59:37;3.28;;;1.38;;
55469;SDS011;41334;47.872;16.384;2023-07-31T21:04:39;2.72;;;1.40;;
55469;SDS011;41334;47.872;16.384;2023-07-31T21:09:41;2.13;;;1.30;;
55469;SDS011;41334;47.872;16.384;2023-07-31T21:14:48;2.30;;;1.30;;
55469;SDS011;41334;47.872;16.384;2023-07-31T21:19:50;3.10;;;1.63;;
55469;SDS011;41334;47.872;16.384;2023-07-31T21:24:52;3.15;;;1.38;;
55469;SDS011;41334;47.872;16.384;2023-07-31T21:29:54;2.47;;;1.63;;
55469;SDS011;41334;47.872;16.384;2023-07-31T21:34:56;2.67;;;1.52;;
55469;SDS011;41334;47.872;16.384;2023-07-31T21:39:58;2.58;;;1.73;;
55469;SDS011;41334;47.872;16.384;2023-07-31T21:45:00;2.30;;;1.52;;
55469;SDS011;41334;47.872;16.384;2023-07-31T21:50:01;2.40;;;1.40;;
55469;SDS011;41334;47.872;16.384;2023-07-31T21:55:04;2.55;;;1.42;;
55469;SDS011;41334;47.872;16.384;2023-07-31T22:00:07;2.13;;;1.35;;
55469;SDS011;41334;47.872;16.384;2023-07-31T22:05:10;2.30;;;1.55;;
55469;SDS011;41334;47.872;16.384;2023-07-31T22:10:12;3.20;;;1.42;;
55469;SDS011;41334;47.872;16.384;2023-07-31T22:15:14;2.65;;;1.45;;
55469;SDS011;41334;47.872;16.384;2023-07-31T22:20:16;2.75;;;1.50;;
55469;SDS011;41334;47.872;16.384;2023-07-31T22:25:18;3.78;;;1.55;;
55469;SDS011;41334;47.872;16.384;2023-07-31T22:30:20;2.20;;;1.50;;
55469;SDS011;41334;47.872;16.384;2023-07-31T22:35:22;2.88;;;1.63;;
55469;SDS011;41334;47.872;16.384;2023-07-31T22:40:23;4.28;;;1.90;;
55469;SDS011;41334;47.872;16.384;2023-07-31T22:45:25;4.32;;;1.65;;
55469;SDS011;41334;47.872;16.384;2023-07-31T22:50:27;2.90;;;1.73;;
55469;SDS011;41334;47.872;16.384;2023-07-31T22:55:30;3.88;;;1.85;;
55469;SDS011;41334;47.872;16.384;2023-07-31T23:00:32;3.65;;;1.92;;
55469;SDS011;41334;47.872;16.384;2023-07-31T23:05:34;2.83;;;1.70;;
55469;SDS011;41334;47.872;16.384;2023-07-31T23:10:36;3.67;;;2.10;;
55469;SDS011;41334;47.872;16.384;2023-07-31T23:15:40;3.13;;;1.80;;
55469;SDS011;41334;47.872;16.384;2023-07-31T23:20:47;2.95;;;1.70;;
55469;SDS011;41334;47.872;16.384;2023-07-31T23:25:51;2.72;;;1.63;;
55469;SDS011;41334;47.872;16.384;2023-07-31T23:31:00;4.03;;;1.92;;
55469;SDS011;41334;47.872;16.384;2023-07-31T23:36:11;4.35;;;1.65;;
55469;SDS011;41334;47.872;16.384;2023-07-31T23:41:14;3.50;;;1.48;;
55469;SDS011;41334;47.872;16.384;2023-07-31T23:46:16;2.50;;;1.58;;
55469;SDS011;41334;47.872;16.384;2023-07-31T23:51:18;3.42;;;2.00;;
55469;SDS011;41334;47.872;16.384;2023-07-31T23:56:20;3.63;;;2.00;;
